createdAt,value
2022-09-19T00:01:53.636Z,48.22
2022-09-19T00:04:25.237Z,48.13
2022-09-19T00:06:54.905Z,48.27
2022-09-19T00:09:25.938Z,48.04
2022-09-19T00:11:55.023Z,48.12
2022-09-19T00:14:25.278Z,48.20
2022-09-19T00:16:57.730Z,47.89
2022-09-19T00:19:27.638Z,47.96
2022-09-19T00:21:57.141Z,48.09
2022-09-19T00:24:43.186Z,48.11
2022-09-19T00:27:12.385Z,48.06
2022-09-19T00:29:42.376Z,47.86
2022-09-19T00:32:13.647Z,48.08
2022-09-19T00:34:45.000Z,48.00
2022-09-19T00:37:15.732Z,47.81
2022-09-19T00:39:44.112Z,48.14
2022-09-19T00:42:16.769Z,47.55
2022-09-19T00:45:02.958Z,47.76
2022-09-19T00:47:36.599Z,47.75
2022-09-19T00:50:13.324Z,47.72
2022-09-19T00:52:46.309Z,47.60
2022-09-19T00:55:14.998Z,47.65
2022-09-19T00:57:53.520Z,47.53
2022-09-19T01:00:22.104Z,47.67
2022-09-19T01:02:52.772Z,47.56
2022-09-19T01:05:29.331Z,47.53
2022-09-19T01:08:16.721Z,47.41
2022-09-19T01:10:58.870Z,47.38
2022-09-19T01:13:32.236Z,47.44
2022-09-19T01:16:04.782Z,47.42
2022-09-19T01:18:36.990Z,47.38
2022-09-19T01:21:42.226Z,47.16
2022-09-19T01:24:50.642Z,47.15
2022-09-19T01:28:07.886Z,47.29
2022-09-19T01:30:36.866Z,47.40
2022-09-19T01:33:08.236Z,47.32
2022-09-19T01:35:39.539Z,47.41
2022-09-19T01:38:11.126Z,47.27
2022-09-19T01:40:39.654Z,47.41
2022-09-19T01:43:13.839Z,47.21
2022-09-19T01:45:42.700Z,47.39
2022-09-19T01:48:17.306Z,47.25
2022-09-19T01:51:05.950Z,47.18
2022-09-19T01:53:46.898Z,47.21
2022-09-19T01:56:22.288Z,47.18
2022-09-19T01:58:55.951Z,47.18
2022-09-19T02:01:29.360Z,47.20
2022-09-19T02:04:02.334Z,47.19
2022-09-19T02:06:43.644Z,47.13
2022-09-19T02:09:18.390Z,47.10
2022-09-19T02:11:46.777Z,47.02
2022-09-19T02:14:19.279Z,47.26
2022-09-19T02:16:52.248Z,47.12
2022-09-19T02:19:23.148Z,46.92
2022-09-19T02:21:55.213Z,47.02
2022-09-19T02:24:28.493Z,46.95
2022-09-19T02:26:58.580Z,47.02
2022-09-19T02:29:31.374Z,46.87
2022-09-19T02:32:00.620Z,46.93
2022-09-19T02:34:29.127Z,46.80
2022-09-19T02:37:02.298Z,46.81
2022-09-19T02:39:33.108Z,47.01
2022-09-19T02:42:04.819Z,46.81
2022-09-19T02:44:37.886Z,46.60
2022-09-19T02:47:11.461Z,46.74
2022-09-19T02:49:41.791Z,46.60
2022-09-19T02:52:14.787Z,46.66
2022-09-19T02:54:44.004Z,46.48
2022-09-19T02:57:14.907Z,46.57
2022-09-19T02:59:46.155Z,46.55
2022-09-19T03:02:18.377Z,46.45
2022-09-19T03:04:49.311Z,46.40
2022-09-19T03:07:20.421Z,46.48
2022-09-19T03:09:54.717Z,46.53
2022-09-19T03:12:26.649Z,46.45
2022-09-19T03:14:59.807Z,46.40
2022-09-19T03:17:32.411Z,46.53
2022-09-19T03:20:00.831Z,46.59
2022-09-19T03:22:30.357Z,46.51
2022-09-19T03:25:02.817Z,46.28
2022-09-19T03:27:31.394Z,46.27
2022-09-19T03:30:01.117Z,46.41
2022-09-19T03:32:29.988Z,46.28
2022-09-19T03:34:58.379Z,46.40
2022-09-19T03:37:26.899Z,46.14
2022-09-19T03:39:55.364Z,46.28
2022-09-19T03:42:23.799Z,46.12
2022-09-19T03:44:52.388Z,46.32
2022-09-19T03:47:22.307Z,46.26
2022-09-19T03:49:51.919Z,46.38
2022-09-19T03:52:20.477Z,46.34
2022-09-19T03:54:49.284Z,46.26
2022-09-19T03:57:17.803Z,46.20
2022-09-19T03:59:46.755Z,46.16
2022-09-19T04:02:15.184Z,46.30
2022-09-19T04:04:45.082Z,46.24
2022-09-19T04:07:13.633Z,46.28
2022-09-19T04:09:42.037Z,46.31
2022-09-19T04:12:10.603Z,46.13
2022-09-19T04:14:39.396Z,46.22
2022-09-19T04:17:24.675Z,46.31
2022-09-19T04:19:54.501Z,46.26
2022-09-19T04:22:23.189Z,46.12
2022-09-19T04:24:53.193Z,46.26
2022-09-19T04:27:21.821Z,46.22
2022-09-19T04:29:50.382Z,46.29
2022-09-19T04:32:18.872Z,46.40
2022-09-19T04:34:48.410Z,46.28
2022-09-19T04:37:18.403Z,46.16
2022-09-19T04:39:49.841Z,46.23
2022-09-19T04:42:18.277Z,46.09
2022-09-19T04:44:46.718Z,46.09
2022-09-19T04:47:15.612Z,46.07
2022-09-19T04:49:44.069Z,46.07
2022-09-19T04:52:13.752Z,45.91
2022-09-19T04:54:43.993Z,45.92
2022-09-19T04:57:12.485Z,45.73
2022-09-19T04:59:40.959Z,45.77
2022-09-19T05:02:09.835Z,45.83
2022-09-19T05:04:39.593Z,45.86
2022-09-19T05:07:09.871Z,45.73
2022-09-19T05:09:38.352Z,46.51
2022-09-19T05:12:10.603Z,46.30
2022-09-19T05:14:39.014Z,46.86
2022-09-19T05:17:07.504Z,47.32
2022-09-19T05:19:37.316Z,47.56
2022-09-19T05:22:06.005Z,47.03
2022-09-19T05:24:36.105Z,46.98
2022-09-19T05:27:05.017Z,47.52
2022-09-19T05:29:37.402Z,47.74
2022-09-19T05:32:06.486Z,47.35
2022-09-19T05:34:35.158Z,46.89
2022-09-19T05:37:03.565Z,47.03
2022-09-19T05:39:32.011Z,46.94
2022-09-19T05:42:01.862Z,46.74
2022-09-19T05:44:30.408Z,46.84
2022-09-19T05:47:00.302Z,47.96
2022-09-19T05:49:28.821Z,47.35
2022-09-19T05:51:57.693Z,47.15
2022-09-19T05:54:25.193Z,46.96
2022-09-19T05:56:54.926Z,46.74
2022-09-19T05:59:23.443Z,46.59
2022-09-19T06:01:52.361Z,46.84
2022-09-19T06:04:22.574Z,46.80
2022-09-19T06:06:50.955Z,46.98
2022-09-19T06:09:19.447Z,46.57
2022-09-19T06:11:47.863Z,46.80
2022-09-19T06:14:16.415Z,46.78
2022-09-19T06:16:44.982Z,46.72
2022-09-19T06:19:13.581Z,46.79
2022-09-19T06:21:46.353Z,46.55
2022-09-19T06:24:14.835Z,46.71
2022-09-19T06:26:43.314Z,46.52
2022-09-19T06:29:11.943Z,46.59
2022-09-19T06:31:41.563Z,46.65
2022-09-19T06:34:10.051Z,46.88
2022-09-19T06:36:38.946Z,46.64
2022-09-19T06:39:08.690Z,47.05
2022-09-19T06:41:37.424Z,47.18
2022-09-19T06:44:06.694Z,47.62
2022-09-19T06:46:38.413Z,47.46
2022-09-19T06:49:08.394Z,46.91
2022-09-19T06:51:36.862Z,46.96
2022-09-19T06:54:05.709Z,46.87
2022-09-19T06:56:35.633Z,46.78
2022-09-19T06:59:05.076Z,46.64
2022-09-19T07:01:34.423Z,46.82
2022-09-19T07:04:03.308Z,46.73
2022-09-19T07:06:35.768Z,46.82
2022-09-19T07:09:04.388Z,46.69
2022-09-19T07:11:33.169Z,46.66
2022-09-19T07:14:03.719Z,46.60
2022-09-19T07:16:32.233Z,47.42
2022-09-19T07:19:02.379Z,46.72
2022-09-19T07:21:30.902Z,46.49
2022-09-19T07:24:02.623Z,46.47
2022-09-19T07:26:31.302Z,46.57
2022-09-19T07:28:59.684Z,46.65
2022-09-19T07:31:30.269Z,46.63
2022-09-19T07:34:01.986Z,46.60
2022-09-19T07:36:35.709Z,46.68
2022-09-19T07:39:04.388Z,46.52
2022-09-19T07:41:32.950Z,46.60
2022-09-19T07:44:01.411Z,46.53
2022-09-19T07:46:31.246Z,46.69
2022-09-19T07:48:59.709Z,46.71
2022-09-19T07:51:30.222Z,46.49
2022-09-19T07:53:58.945Z,46.49
2022-09-19T07:56:27.405Z,46.40
2022-09-19T07:58:55.974Z,46.40
2022-09-19T08:01:24.480Z,46.22
2022-09-19T08:03:54.932Z,46.67
2022-09-19T08:06:23.356Z,46.88
2022-09-19T08:08:51.797Z,47.25
2022-09-19T08:11:21.152Z,47.19
2022-09-19T08:13:49.584Z,47.10
2022-09-19T08:16:18.477Z,47.00
2022-09-19T08:18:47.277Z,47.06
2022-09-19T08:21:17.055Z,47.00
2022-09-19T08:23:45.581Z,47.10
2022-09-19T08:26:14.127Z,47.20
2022-09-19T08:28:42.813Z,47.20
2022-09-19T08:31:11.403Z,47.15
2022-09-19T08:33:40.151Z,47.12
2022-09-19T08:36:10.354Z,47.10
2022-09-19T08:38:40.251Z,47.10
2022-09-19T08:41:25.999Z,47.25
2022-09-19T08:43:57.632Z,47.18
2022-09-19T08:46:29.893Z,47.11
2022-09-19T08:49:00.098Z,47.11
2022-09-19T08:51:32.479Z,47.21
2022-09-19T08:54:11.759Z,47.13
2022-09-19T08:56:40.406Z,47.22
2022-09-19T08:59:12.779Z,47.05
2022-09-19T09:01:41.273Z,47.21
2022-09-19T09:04:23.534Z,47.31
2022-09-19T09:07:14.994Z,47.22
2022-09-19T09:09:59.928Z,47.24
2022-09-19T09:12:33.836Z,47.04
2022-09-19T09:15:19.839Z,47.30
2022-09-19T09:18:01.609Z,47.11
2022-09-19T09:20:40.391Z,47.39
2022-09-19T09:23:12.763Z,47.09
2022-09-19T09:25:51.869Z,47.34
2022-09-19T09:28:28.323Z,47.26
2022-09-19T09:31:03.571Z,47.36
2022-09-19T09:33:34.812Z,47.41
2022-09-19T09:36:07.526Z,47.48
2022-09-19T09:38:38.274Z,47.46
2022-09-19T09:41:30.392Z,47.39
2022-09-19T09:44:06.991Z,47.60
2022-09-19T09:46:50.515Z,47.36
2022-09-19T09:49:20.001Z,47.37
2022-09-19T09:51:54.949Z,47.41
2022-09-19T09:54:52.861Z,47.46
2022-09-19T09:57:32.306Z,47.47
2022-09-19T10:00:20.063Z,47.36
2022-09-19T10:03:10.447Z,47.39
2022-09-19T10:05:41.461Z,47.46
2022-09-19T10:08:19.861Z,47.23
2022-09-19T10:10:48.939Z,47.40
2022-09-19T10:13:26.688Z,47.47
2022-09-19T10:15:57.565Z,47.29
2022-09-19T10:18:29.059Z,47.21
2022-09-19T10:20:58.128Z,47.25
2022-09-19T10:23:34.260Z,47.33
2022-09-19T10:26:04.395Z,47.27
2022-09-19T10:28:38.562Z,47.30
2022-09-19T10:31:24.647Z,47.36
2022-09-19T10:33:53.809Z,47.42
2022-09-19T10:36:26.466Z,47.33
2022-09-19T10:38:59.820Z,47.25
2022-09-19T10:41:29.832Z,46.95
2022-09-19T10:44:00.444Z,47.27
2022-09-19T10:46:36.787Z,47.17
2022-09-19T10:49:08.614Z,47.08
2022-09-19T10:51:39.700Z,47.22
2022-09-19T10:54:13.069Z,47.18
2022-09-19T10:56:42.331Z,47.12
2022-09-19T10:59:27.290Z,47.22
2022-09-19T11:02:21.475Z,47.24
2022-09-19T11:05:02.176Z,47.17
2022-09-19T11:07:32.314Z,47.17
2022-09-19T11:10:11.166Z,47.18
2022-09-19T11:12:42.287Z,47.18
2022-09-19T11:15:17.673Z,47.17
2022-09-19T11:17:59.052Z,47.32
2022-09-19T11:20:41.262Z,47.09
2022-09-19T11:23:41.260Z,47.05
2022-09-19T11:26:21.928Z,47.15
2022-09-19T11:29:00.332Z,47.25
2022-09-19T11:34:50.915Z,46.95
2022-09-19T11:37:33.776Z,47.04
2022-09-19T11:40:16.810Z,46.99
2022-09-19T11:42:50.396Z,47.18
2022-09-19T11:45:20.815Z,47.15
2022-09-19T11:48:15.124Z,47.04
2022-09-19T11:50:58.117Z,47.10
2022-09-19T11:53:36.868Z,47.08
2022-09-19T11:56:16.093Z,47.00
2022-09-19T11:58:53.128Z,46.60
2022-09-19T12:01:36.820Z,47.10
2022-09-19T12:04:21.567Z,47.20
2022-09-19T12:07:18.081Z,47.10
2022-09-19T12:09:50.757Z,47.14
2022-09-19T12:12:21.743Z,47.11
2022-09-19T12:14:52.953Z,47.17
2022-09-19T12:17:27.282Z,47.17
2022-09-19T12:20:02.775Z,46.97
2022-09-19T12:22:32.554Z,47.10
2022-09-19T12:25:07.115Z,47.08
2022-09-19T12:27:38.488Z,47.01
2022-09-19T12:30:09.827Z,47.10
2022-09-19T12:32:44.902Z,47.05
2022-09-19T12:35:22.675Z,47.07
2022-09-19T12:38:04.582Z,47.10
2022-09-19T12:40:42.309Z,47.08
2022-09-19T12:43:17.578Z,46.95
2022-09-19T12:45:48.447Z,46.88
2022-09-19T12:48:24.563Z,47.12
2022-09-19T12:50:55.060Z,46.80
2022-09-19T12:53:36.059Z,47.03
2022-09-19T12:56:08.024Z,47.14
2022-09-19T12:58:49.351Z,46.94
2022-09-19T13:01:22.339Z,46.88
2022-09-19T13:03:55.441Z,46.94
2022-09-19T13:06:26.896Z,46.92
2022-09-19T13:08:59.276Z,47.05
2022-09-19T13:11:31.007Z,47.12
2022-09-19T13:14:02.117Z,47.25
2022-09-19T13:16:32.713Z,47.34
2022-09-19T13:19:18.830Z,47.22
2022-09-19T13:22:07.567Z,47.28
2022-09-19T13:24:56.093Z,47.25
2022-09-19T13:27:26.618Z,47.28
2022-09-19T13:29:58.569Z,47.23
2022-09-19T13:32:53.642Z,47.23
2022-09-19T13:35:23.801Z,47.20
2022-09-19T13:38:01.592Z,47.38
2022-09-19T13:40:43.225Z,47.20
2022-09-19T13:43:31.684Z,47.28
2022-09-19T13:46:09.884Z,47.18
2022-09-19T13:48:46.307Z,47.18
2022-09-19T13:51:33.248Z,47.21
2022-09-19T13:54:45.315Z,47.32
2022-09-19T13:57:18.367Z,47.06
2022-09-19T13:59:52.680Z,47.00
2022-09-19T14:02:25.335Z,46.81
2022-09-19T14:05:02.349Z,46.92
2022-09-19T14:10:28.741Z,46.79
2022-09-19T14:13:02.487Z,46.50
2022-09-19T14:16:07.639Z,46.78
2022-09-19T14:19:03.061Z,47.02
2022-09-19T14:21:58.380Z,47.22
2022-09-19T14:24:49.962Z,47.38
2022-09-19T14:28:03.266Z,47.33
2022-09-19T14:31:07.882Z,47.11
2022-09-19T14:34:21.199Z,47.15
2022-09-19T14:37:24.581Z,47.16
2022-09-19T14:40:25.814Z,46.97
2022-09-19T14:43:11.380Z,46.79
2022-09-19T14:45:52.809Z,46.98
2022-09-19T14:48:35.893Z,46.82
2022-09-19T14:51:28.026Z,46.49
2022-09-19T14:54:00.029Z,47.03
2022-09-19T14:56:28.459Z,46.82
2022-09-19T14:59:01.912Z,47.05
2022-09-19T15:01:33.441Z,46.80
2022-09-19T15:04:04.056Z,46.92
2022-09-19T15:06:34.778Z,46.99
2022-09-19T15:09:03.789Z,46.99
2022-09-19T15:11:33.351Z,47.43
2022-09-19T15:14:06.892Z,47.19
2022-09-19T15:16:35.405Z,47.38
2022-09-19T15:19:04.057Z,47.24
2022-09-19T15:21:35.365Z,47.21
2022-09-19T15:24:07.102Z,47.28
2022-09-19T15:26:43.018Z,47.24
2022-09-19T15:29:38.100Z,47.48
2022-09-19T15:32:23.572Z,47.36
2022-09-19T15:34:54.149Z,47.22
2022-09-19T15:37:22.790Z,47.18
2022-09-19T15:39:51.821Z,47.51
2022-09-19T15:42:20.195Z,47.45
2022-09-19T15:44:49.955Z,47.42
2022-09-19T15:47:20.026Z,47.44
2022-09-19T15:49:50.662Z,47.43
2022-09-19T15:52:31.106Z,47.45
2022-09-19T15:55:00.032Z,47.68
2022-09-19T15:57:33.120Z,47.37
2022-09-19T16:00:07.635Z,47.62
2022-09-19T16:02:40.091Z,47.46
2022-09-19T16:05:17.602Z,47.52
2022-09-19T16:08:08.660Z,47.73
2022-09-19T16:10:53.582Z,47.56
2022-09-19T16:13:37.244Z,47.81
2022-09-19T16:16:27.716Z,47.89
2022-09-19T16:18:56.771Z,48.23
2022-09-19T16:21:29.424Z,47.84
2022-09-19T16:23:57.887Z,47.77
2022-09-19T16:26:31.181Z,48.08
2022-09-19T16:28:59.655Z,48.16
2022-09-19T16:31:33.801Z,47.92
2022-09-19T16:34:07.609Z,47.68
2022-09-19T16:36:43.024Z,47.93
2022-09-19T16:39:28.754Z,47.87
2022-09-19T16:42:07.911Z,47.75
2022-09-19T16:44:42.347Z,47.81
2022-09-19T16:47:20.297Z,47.70
2022-09-19T16:52:27.964Z,47.66
2022-09-19T16:54:57.453Z,47.69
2022-09-19T16:57:26.281Z,47.84
2022-09-19T16:59:55.940Z,47.58
2022-09-19T17:02:27.143Z,47.67
2022-09-19T17:04:56.096Z,47.55
2022-09-19T17:07:25.255Z,47.70
2022-09-19T17:09:54.026Z,47.69
2022-09-19T17:12:23.649Z,47.58
2022-09-19T17:14:52.121Z,47.80
2022-09-19T17:17:21.499Z,47.87
2022-09-19T17:19:51.286Z,47.56
2022-09-19T17:22:20.663Z,47.91
2022-09-19T17:24:49.097Z,47.52
2022-09-19T17:27:17.587Z,47.58
2022-09-19T17:29:46.063Z,47.72
2022-09-19T17:32:14.602Z,47.69
2022-09-19T17:34:43.004Z,48.29
2022-09-19T17:37:12.797Z,48.02
2022-09-19T17:39:41.292Z,48.02
2022-09-19T17:42:14.038Z,48.04
2022-09-19T17:44:44.287Z,48.40
2022-09-19T17:47:33.822Z,48.27
2022-09-19T17:50:01.445Z,48.67
2022-09-19T17:52:31.443Z,48.50
2022-09-19T17:54:59.917Z,48.47
2022-09-19T17:57:29.071Z,48.37
2022-09-19T18:00:00.931Z,48.39
2022-09-19T18:02:47.915Z,48.67
2022-09-19T18:05:20.412Z,48.58
2022-09-19T18:07:55.224Z,48.83
2022-09-19T18:10:25.726Z,48.42
2022-09-19T18:12:55.983Z,48.40
2022-09-19T18:15:26.415Z,48.41
2022-09-19T18:17:55.754Z,48.43
2022-09-19T18:20:25.012Z,48.16
2022-09-19T18:22:54.893Z,48.28
2022-09-19T18:25:27.465Z,48.01
2022-09-19T18:27:55.973Z,48.31
2022-09-19T18:30:25.074Z,48.39
2022-09-19T18:32:53.954Z,48.27
2022-09-19T18:35:22.514Z,48.01
2022-09-19T18:37:51.062Z,48.34
2022-09-19T18:40:21.000Z,48.92
2022-09-19T18:42:49.633Z,49.46
2022-09-19T18:45:18.395Z,49.43
2022-09-19T18:47:48.020Z,49.45
2022-09-19T18:50:16.564Z,49.26
2022-09-19T18:52:45.463Z,49.39
2022-09-19T18:55:14.010Z,49.44
2022-09-19T18:57:44.001Z,49.34
2022-09-19T19:00:13.952Z,49.36
2022-09-19T19:02:42.510Z,49.61
2022-09-19T19:05:11.205Z,49.42
2022-09-19T19:07:40.586Z,49.42
2022-09-19T19:10:10.073Z,49.40
2022-09-19T19:12:45.667Z,49.51
2022-09-19T19:15:18.575Z,49.25
2022-09-19T19:17:48.211Z,49.43
2022-09-19T19:20:16.995Z,49.26
2022-09-19T19:22:48.201Z,49.14
2022-09-19T19:25:17.092Z,49.19
2022-09-19T19:27:49.916Z,49.10
2022-09-19T19:30:20.571Z,49.24
2022-09-19T19:32:48.965Z,49.15
2022-09-19T19:35:19.315Z,49.36
2022-09-19T19:37:48.075Z,49.00
2022-09-19T19:40:16.656Z,49.27
2022-09-19T19:42:45.114Z,49.16
2022-09-19T19:45:13.830Z,48.92
2022-09-19T19:47:44.378Z,49.08
2022-09-19T19:50:12.735Z,49.27
2022-09-19T19:52:41.214Z,49.04
2022-09-19T19:55:12.781Z,48.92
2022-09-19T19:57:41.773Z,48.94
2022-09-19T20:00:12.272Z,49.12
2022-09-19T20:02:40.685Z,48.73
2022-09-19T20:05:10.952Z,48.93
2022-09-19T20:07:39.381Z,48.70
2022-09-19T20:10:10.204Z,48.89
2022-09-19T20:12:38.619Z,48.92
2022-09-19T20:15:08.154Z,48.58
2022-09-19T20:17:36.556Z,48.73
2022-09-19T20:20:05.320Z,48.60
2022-09-19T20:22:35.655Z,48.50
2022-09-19T20:25:04.898Z,48.53
2022-09-19T20:27:35.760Z,48.65
2022-09-19T20:30:05.080Z,48.33
2022-09-19T20:32:33.603Z,48.57
2022-09-19T20:35:02.195Z,48.46
2022-09-19T20:37:31.298Z,48.35
2022-09-19T20:40:02.238Z,48.46
2022-09-19T20:42:30.738Z,48.21
2022-09-19T20:44:59.182Z,48.34
2022-09-19T20:47:27.778Z,48.36
2022-09-19T20:49:57.050Z,48.28
2022-09-19T20:52:25.703Z,48.08
2022-09-19T20:54:54.845Z,47.90
2022-09-19T20:57:24.816Z,48.35
2022-09-19T20:59:53.228Z,48.30
2022-09-19T21:02:21.682Z,48.51
2022-09-19T21:04:50.092Z,48.59
2022-09-19T21:07:20.377Z,48.24
2022-09-19T21:09:48.766Z,48.34
2022-09-19T21:12:42.382Z,48.42
2022-09-19T21:15:09.075Z,48.28
2022-09-19T21:17:37.441Z,48.23
2022-09-19T21:20:06.721Z,48.25
2022-09-19T21:22:35.182Z,48.28
2022-09-19T21:25:03.903Z,48.28
2022-09-19T21:27:32.395Z,48.12
2022-09-19T21:30:00.760Z,48.06
2022-09-19T21:32:30.517Z,48.16
2022-09-19T21:34:58.883Z,48.23
2022-09-19T21:37:27.338Z,48.12
2022-09-19T21:39:55.816Z,47.99
2022-09-19T21:42:25.750Z,48.13
2022-09-19T21:44:54.169Z,48.33
2022-09-19T21:47:22.620Z,48.29
2022-09-19T21:49:52.510Z,48.19
2022-09-19T21:52:20.901Z,48.09
2022-09-19T21:54:49.322Z,48.01
2022-09-19T21:57:17.710Z,48.00
2022-09-19T21:59:46.135Z,48.09
2022-09-19T22:02:14.625Z,48.22
2022-09-19T22:04:43.054Z,48.15
2022-09-19T22:07:12.840Z,48.14
2022-09-19T22:09:41.295Z,47.99
2022-09-19T22:12:09.749Z,48.02
2022-09-19T22:14:38.356Z,47.96
2022-09-19T22:17:07.204Z,48.10
2022-09-19T22:19:35.668Z,48.20
2022-09-19T22:22:04.093Z,48.10
2022-09-19T22:24:33.790Z,48.07
2022-09-19T22:27:02.134Z,48.13
2022-09-19T22:29:30.465Z,48.03
2022-09-19T22:31:58.963Z,48.14
2022-09-19T22:34:27.453Z,48.06
2022-09-19T22:36:55.885Z,47.79
2022-09-19T22:39:24.400Z,47.84
2022-09-19T22:41:54.215Z,48.00
2022-09-19T22:44:22.576Z,48.17
2022-09-19T22:46:50.993Z,47.92
2022-09-19T22:49:19.384Z,47.81
2022-09-19T22:51:47.833Z,48.02
2022-09-19T22:54:16.383Z,48.15
2022-09-19T22:56:44.753Z,48.01
2022-09-19T22:59:14.519Z,47.95
2022-09-19T23:01:43.266Z,47.82
2022-09-19T23:04:12.197Z,47.84
2022-09-19T23:06:41.506Z,47.99
2022-09-19T23:09:13.463Z,48.01
2022-09-19T23:11:42.464Z,47.94
2022-09-19T23:14:15.274Z,47.62
2022-09-19T23:16:44.763Z,48.07
2022-09-19T23:19:14.321Z,47.89
2022-09-19T23:21:46.065Z,48.26
2022-09-19T23:24:16.508Z,48.11
2022-09-19T23:26:45.039Z,48.08
2022-09-19T23:29:14.829Z,47.96
2022-09-19T23:31:43.631Z,48.09
2022-09-19T23:34:12.306Z,48.08
2022-09-19T23:36:40.747Z,47.95
2022-09-19T23:39:10.591Z,48.19
2022-09-19T23:41:39.162Z,48.22
2022-09-19T23:44:07.764Z,48.19
2022-09-19T23:46:38.320Z,48.08
2022-09-19T23:49:06.813Z,47.84
2022-09-19T23:51:36.160Z,47.99
2022-09-19T23:54:04.840Z,48.07
2022-09-19T23:56:33.629Z,47.73
2022-09-19T23:59:03.264Z,47.73
